Time;durP1;ratioP1;P1;durP2;ratioP2;P2;SDS_P1;SDS_P2;PMS_P1;PMS_P2;Temp;Humidity;BMP_temperature;BMP_pressure;BME280_temperature;BME280_humidity;BME280_pressure;Samples;Min_cycle;Max_cycle;Signal;HPM_P1;HPM_P2
2022/11/12 00:00:35;;;;;;;26.40;17.90;;;;;;;5.46;93.55;100883.70;102241;1292;24427;-61
2022/11/12 00:03:21;;;;;;;29.30;16.10;;;;;;;5.47;93.51;100885.45;102127;1291;137956;-60
2022/11/12 00:06:06;;;;;;;24.90;16.80;;;;;;;5.46;93.39;100882.11;102250;1297;24399;-60
2022/11/12 00:08:52;;;;;;;26.90;17.30;;;;;;;5.46;93.37;100883.16;102081;1293;138825;-60
2022/11/12 00:11:37;;;;;;;26.70;16.30;;;;;;;5.46;93.36;100886.82;102279;1291;25284;-59
2022/11/12 00:14:23;;;;;;;24.70;16.60;;;;;;;5.45;93.46;100890.64;102183;1289;139478;-60
2022/11/12 00:17:08;;;;;;;25.60;17.80;;;;;;;5.44;93.23;100887.34;102300;1289;22940;-60
2022/11/12 00:19:54;;;;;;;29.10;16.90;;;;;;;5.43;93.18;100894.19;102126;1298;139937;-60
2022/11/12 00:22:39;;;;;;;26.30;17.10;;;;;;;5.42;93.23;100895.96;102303;1288;24208;-60
2022/11/12 00:25:25;;;;;;;33.10;16.80;;;;;;;5.40;92.76;100890.61;102363;1290;25323;-61
2022/11/12 00:28:11;;;;;;;26.40;16.00;;;;;;;5.39;93.07;100887.64;106724;1303;22179;-61
2022/11/12 00:30:56;;;;;;;26.30;15.60;;;;;;;5.40;93.18;100892.40;106679;1298;23819;-61
2022/11/12 00:33:42;;;;;;;27.40;15.20;;;;;;;5.40;93.27;100888.45;106580;1288;138537;-61
2022/11/12 00:36:27;;;;;;;25.70;15.60;;;;;;;5.42;93.73;100888.22;104261;1288;24084;-60
2022/11/12 00:39:13;;;;;;;24.80;15.70;;;;;;;5.44;93.64;100891.20;102178;1296;139742;-61
2022/11/12 00:41:58;;;;;;;22.50;13.70;;;;;;;5.46;93.80;100889.45;102168;1284;24328;-60
2022/11/12 00:44:44;;;;;;;22.50;14.70;;;;;;;5.49;93.92;100891.49;102084;1298;138054;-59
2022/11/12 00:47:29;;;;;;;26.20;13.80;;;;;;;5.51;93.74;100889.69;102200;1292;23936;-60
2022/11/12 00:50:15;;;;;;;23.80;13.60;;;;;;;5.54;94.09;100891.67;102079;1290;139859;-61
2022/11/12 00:53:01;;;;;;;21.90;13.20;;;;;;;5.57;94.25;100891.67;102188;1298;24311;-60
2022/11/12 00:55:46;;;;;;;19.20;12.30;;;;;;;5.59;94.33;100890.16;102221;1281;138053;-60
2022/11/12 00:58:33;;;;;;;20.30;13.00;;;;;;;5.61;94.12;100893.55;102315;1312;22561;-60
2022/11/12 01:01:18;;;;;;;19.90;12.90;;;;;;;5.62;94.36;100887.83;106706;1303;22159;-61
2022/11/12 01:04:04;;;;;;;20.80;11.80;;;;;;;5.63;93.98;100885.36;106785;1303;22599;-61
2022/11/12 01:06:49;;;;;;;24.40;12.70;;;;;;;5.63;94.21;100886.87;106760;1296;22145;-56
2022/11/12 01:09:35;;;;;;;20.20;12.80;;;;;;;5.65;93.90;100881.64;106630;1303;138035;-56
2022/11/12 01:12:20;;;;;;;20.80;11.80;;;;;;;5.67;93.92;100883.61;106726;1306;22316;-56
2022/11/12 01:15:06;;;;;;;25.60;12.60;;;;;;;5.68;93.94;100882.34;106640;1303;139570;-56
2022/11/12 01:17:52;;;;;;;18.40;12.30;;;;;;;5.69;93.88;100879.86;106756;1288;23023;-56
2022/11/12 01:20:38;;;;;;;19.30;11.60;;;;;;;5.70;93.75;100880.11;106606;1298;138415;-56
2022/11/12 01:23:23;;;;;;;19.60;11.40;;;;;;;5.71;93.76;100875.10;106763;1302;22930;-56
2022/11/12 01:26:16;;;;;;;18.20;12.10;;;;;;;5.70;93.61;100871.39;106620;1303;139378;-56
2022/11/12 01:29:02;;;;;;;16.10;11.80;;;;;;;5.74;93.39;100873.21;106746;1303;22285;-56
2022/11/12 01:31:47;;;;;;;18.00;11.30;;;;;;;5.75;93.46;100874.64;106754;1303;22151;-56
2022/11/12 01:34:33;;;;;;;18.50;11.40;;;;;;;5.76;93.48;100876.32;106729;1303;22168;-56
2022/11/12 01:37:18;;;;;;;19.80;11.60;;;;;;;5.74;93.36;100871.37;102876;1285;25215;-55
2022/11/12 01:40:05;;;;;;;18.00;11.30;;;;;;;5.78;93.14;100879.17;102172;1289;139290;-55
2022/11/12 01:42:53;;;;;;;15.90;10.60;;;;;;;5.78;93.03;100872.82;102364;1295;24844;-55
2022/11/12 01:45:39;;;;;;;19.00;11.60;;;;;;;5.77;93.06;100871.48;102230;1295;139460;-55
2022/11/12 01:48:32;;;;;;;24.40;12.00;;;;;;;5.76;92.79;100873.86;102182;1299;22618;-55
2022/11/12 01:51:22;;;;;;;23.30;11.60;;;;;;;5.73;92.96;100874.23;102210;1298;139955;-55
2022/11/12 01:54:08;;;;;;;21.20;12.60;;;;;;;5.72;92.69;100875.73;102259;1288;24179;-55
2022/11/12 01:56:53;;;;;;;21.60;12.90;;;;;;;5.71;93.14;100876.76;106527;1303;139236;-56
2022/11/12 01:59:43;;;;;;;23.30;12.50;;;;;;;5.70;92.95;100877.98;106659;1303;22119;-56
2022/11/12 02:02:28;;;;;;;19.50;11.90;;;;;;;5.69;93.09;100881.08;106347;1303;139319;-56
2022/11/12 02:05:14;;;;;;;20.10;12.30;;;;;;;5.69;92.89;100876.65;106600;1303;22499;-55
2022/11/12 02:08:00;;;;;;;19.50;12.10;;;;;;;5.66;92.86;100872.20;102222;1291;23862;-55
2022/11/12 02:10:45;;;;;;;21.50;13.10;;;;;;;5.69;92.54;100875.06;102230;1307;22484;-55
2022/11/12 02:16:40;;;;;;;19.90;12.80;;;;;;;5.67;92.64;100862.65;102444;1295;23039;-55
2022/11/12 02:19:25;;;;;;;21.10;13.40;;;;;;;5.65;92.58;100860.35;102261;1298;25388;-55
2022/11/12 02:22:11;;;;;;;25.90;14.70;;;;;;;5.63;92.74;100860.23;102308;1282;138464;-55
2022/11/12 02:24:56;;;;;;;16.90;12.70;;;;;;;5.63;92.59;100863.73;102362;1278;22498;-55
2022/11/12 02:27:42;;;;;;;21.10;13.10;;;;;;;5.61;92.88;100862.70;102252;1289;139187;-55
2022/11/12 02:30:41;;;;;;;20.40;13.80;;;;;;;5.60;92.81;100865.17;102350;1305;23078;-55
2022/11/12 02:33:27;;;;;;;22.40;13.80;;;;;;;5.59;93.00;100874.35;106672;1303;140402;-56
2022/11/12 02:36:12;;;;;;;30.50;16.00;;;;;;;5.57;93.28;100872.92;104840;1290;23031;-55
2022/11/12 02:38:58;;;;;;;23.70;14.50;;;;;;;5.56;92.97;100872.29;102259;1287;138365;-56
2022/11/12 02:41:43;;;;;;;20.90;13.10;;;;;;;5.56;92.99;100870.37;102471;1289;25297;-56
2022/11/12 02:44:29;;;;;;;18.50;12.40;;;;;;;5.51;93.43;100864.29;102332;1289;140112;-56
2022/11/12 02:47:14;;;;;;;24.60;13.20;;;;;;;5.57;93.22;100879.58;102405;1296;24435;-55
2022/11/12 02:49:59;;;;;;;19.80;13.10;;;;;;;5.57;93.34;100882.45;102401;1289;24281;-55
2022/11/12 02:52:45;;;;;;;18.30;12.00;;;;;;;5.57;93.25;100866.13;106756;1303;22161;-56
2022/11/12 02:55:30;;;;;;;22.30;12.10;;;;;;;5.57;93.33;100863.73;106701;1303;22128;-56
2022/11/12 02:58:16;;;;;;;21.60;13.80;;;;;;;5.57;93.22;100860.19;106528;1297;139359;-56
2022/11/12 03:01:01;;;;;;;24.10;13.90;;;;;;;5.58;93.10;100865.11;106629;1303;23305;-57
2022/11/12 03:03:47;;;;;;;18.30;12.60;;;;;;;5.57;93.07;100864.84;106626;1303;138673;-56
2022/11/12 03:06:32;;;;;;;16.00;11.40;;;;;;;5.57;92.79;100856.16;106695;1303;22981;-56
2022/11/12 03:09:17;;;;;;;17.70;12.50;;;;;;;5.56;92.50;100865.74;106692;1303;140402;-56
2022/11/12 03:12:03;;;;;;;19.50;13.00;;;;;;;5.53;92.24;100869.26;106806;1303;22162;-56
2022/11/12 03:14:48;;;;;;;16.60;12.50;;;;;;;5.51;92.05;100868.10;106603;1298;139096;-56
2022/11/12 03:17:34;;;;;;;18.70;12.20;;;;;;;5.48;91.76;100866.95;106738;1303;22144;-56
2022/11/12 03:20:19;;;;;;;19.70;12.50;;;;;;;5.45;91.85;100871.30;106667;1302;139844;-56
2022/11/12 03:23:06;;;;;;;19.70;12.50;;;;;;;5.42;91.93;100868.92;106696;1288;22218;-56
2022/11/12 03:25:51;;;;;;;17.60;12.80;;;;;;;5.40;91.74;100872.90;106750;1295;22212;-56
2022/11/12 03:28:37;;;;;;;20.30;12.90;;;;;;;5.39;91.83;100875.92;106712;1303;22196;-56
2022/11/12 03:31:22;;;;;;;21.80;13.30;;;;;;;5.40;92.17;100873.81;106661;1303;22916;-56
2022/11/12 03:34:07;;;;;;;20.20;13.10;;;;;;;5.41;92.19;100871.04;106688;1300;138773;-56
2022/11/12 03:36:53;;;;;;;17.20;11.40;;;;;;;5.42;92.43;100871.23;106721;1303;22125;-56
2022/11/12 03:39:38;;;;;;;18.80;12.70;;;;;;;5.43;92.50;100869.15;106650;1303;139711;-56
2022/11/12 03:42:23;;;;;;;17.60;13.10;;;;;;;5.45;92.55;100876.33;106765;1300;23027;-57
2022/11/12 03:45:09;;;;;;;20.50;12.20;;;;;;;5.46;92.65;100875.05;106684;1303;138190;-56
2022/11/12 03:47:55;;;;;;;20.90;11.90;;;;;;;5.49;92.72;100875.27;106793;1295;22162;-56
2022/11/12 03:50:40;;;;;;;19.40;11.80;;;;;;;5.52;93.23;100868.73;106650;1295;140082;-56
2022/11/12 03:53:26;;;;;;;20.50;12.30;;;;;;;5.55;93.25;100855.76;106713;1303;22172;-56
2022/11/12 03:56:11;;;;;;;17.80;12.10;;;;;;;5.56;93.42;100855.57;106568;1303;139747;-56
2022/11/12 03:58:57;;;;;;;17.40;11.50;;;;;;;5.57;93.46;100862.69;106779;1303;22133;-56
2022/11/12 04:01:42;;;;;;;15.90;11.20;;;;;;;5.56;93.47;100854.94;106732;1303;22132;-56
2022/11/12 04:08:34;;;;;;;19.50;11.70;;;;;;;5.59;93.33;100852.82;106610;1303;138744;-56
2022/11/12 04:10:38;;;;;;;16.60;10.90;;;;;;;5.60;93.58;100854.61;106728;1301;22235;-56
2022/11/12 04:13:26;;;;;;;17.60;11.90;;;;;;;5.62;93.65;100853.96;106668;1298;22110;-57
2022/11/12 04:22:22;;;;;;;18.30;10.70;;;;;;;5.73;94.14;100860.67;106657;1295;140554;-56
2022/11/12 04:28:11;;;;;;;21.00;11.30;;;;;;;5.80;94.22;100867.14;106581;1303;140123;-56
2022/11/12 04:30:56;;;;;;;16.10;11.90;;;;;;;5.84;94.32;100861.98;106677;1303;22104;-56
2022/11/12 04:33:41;;;;;;;16.80;11.40;;;;;;;5.87;94.69;100857.95;106623;1289;141280;-57
2022/11/12 04:36:27;;;;;;;19.60;12.00;;;;;;;5.90;94.56;100854.55;106786;1303;22191;-57
2022/11/12 04:39:12;;;;;;;18.20;12.20;;;;;;;5.89;94.66;100852.23;106648;1303;139478;-56
2022/11/12 04:45:11;;;;;;;19.90;11.70;;;;;;;5.99;94.62;100863.69;106518;1303;139928;-56
2022/11/12 04:47:57;;;;;;;20.80;11.40;;;;;;;6.01;94.88;100859.42;106704;1298;22960;-56
2022/11/12 04:50:43;;;;;;;18.10;11.40;;;;;;;6.04;94.81;100854.50;106587;1296;139931;-55
2022/11/12 04:53:29;;;;;;;17.80;12.10;;;;;;;6.04;94.82;100845.66;106727;1304;22317;-55
2022/11/12 04:56:14;;;;;;;18.80;12.40;;;;;;;6.11;94.76;100837.77;106646;1303;139224;-55
2022/11/12 04:59:00;;;;;;;20.70;12.80;;;;;;;6.15;94.97;100832.05;106705;1293;22187;-55
2022/11/12 05:01:45;;;;;;;15.90;11.20;;;;;;;6.17;94.94;100831.00;106739;1303;22212;-55
2022/11/12 05:04:30;;;;;;;21.20;12.60;;;;;;;6.20;95.18;100839.52;106675;1303;139760;-55
2022/11/12 05:07:16;;;;;;;23.40;13.00;;;;;;;6.22;94.92;100842.46;106752;1296;22169;-55
2022/11/12 05:10:01;;;;;;;19.20;12.20;;;;;;;6.24;95.07;100838.07;106605;1304;139047;-56
2022/11/12 05:12:47;;;;;;;19.50;12.40;;;;;;;6.27;95.00;100844.75;106730;1303;22892;-55
2022/11/12 05:15:32;;;;;;;18.50;12.70;;;;;;;6.30;95.09;100854.61;106597;1303;139165;-55
2022/11/12 05:18:17;;;;;;;15.80;11.20;;;;;;;6.33;95.00;100851.72;106719;1304;22216;-55
2022/11/12 05:22:04;;;;;;;17.40;12.50;;;;;;;6.35;95.18;100853.27;106574;1306;140535;-56
2022/11/12 05:24:08;;;;;;;17.90;12.50;;;;;;;6.35;94.98;100858.84;106773;1295;22186;-56
2022/11/12 05:27:16;;;;;;;15.80;10.90;;;;;;;6.41;94.93;100870.88;106626;1303;138467;-55
2022/11/12 05:30:02;;;;;;;17.30;11.60;;;;;;;6.43;95.01;100872.94;106726;1288;22226;-56
2022/11/12 05:32:47;;;;;;;15.00;11.40;;;;;;;6.46;95.11;100872.63;106624;1298;139391;-55
2022/11/12 05:35:32;;;;;;;19.30;11.20;;;;;;;6.48;95.07;100872.19;106076;1303;22496;-54
2022/11/12 05:38:18;;;;;;;17.70;12.00;;;;;;;6.50;94.95;100874.39;102309;1289;139137;-55
2022/11/12 05:41:03;;;;;;;19.80;11.30;;;;;;;6.51;95.10;100873.21;102392;1305;22504;-54
2022/11/12 05:43:49;;;;;;;22.70;13.40;;;;;;;6.52;95.16;100871.60;102373;1294;27676;-54
2022/11/12 05:46:35;;;;;;;18.80;12.20;;;;;;;6.53;95.24;100877.20;102277;1289;139204;-54
2022/11/12 05:49:20;;;;;;;17.60;12.10;;;;;;;6.55;95.06;100878.13;102419;1296;22602;-55
2022/11/12 05:52:06;;;;;;;24.40;13.60;;;;;;;6.55;95.31;100877.14;102296;1281;138463;-55
2022/11/12 05:54:51;;;;;;;23.80;14.90;;;;;;;6.57;95.43;100881.11;102392;1295;22491;-56
2022/11/12 05:57:37;;;;;;;21.40;12.00;;;;;;;6.57;95.57;100883.23;102264;1295;138362;-55
2022/11/12 06:00:22;;;;;;;20.50;13.10;;;;;;;6.58;95.45;100882.53;102423;1298;25317;-55
2022/11/12 06:03:09;;;;;;;21.80;14.90;;;;;;;6.60;95.68;100878.27;102270;1295;139227;-55
2022/11/12 06:05:54;;;;;;;21.80;15.40;;;;;;;6.62;95.60;100874.78;106699;1303;22232;-53
2022/11/12 06:08:39;;;;;;;25.10;16.90;;;;;;;6.63;95.64;100875.37;106629;1303;138946;-53
2022/11/12 06:11:25;;;;;;;24.80;16.70;;;;;;;6.66;95.79;100879.11;106715;1303;22219;-53
2022/11/12 06:14:10;;;;;;;28.20;16.70;;;;;;;6.66;95.83;100877.91;106736;1304;22110;-53
2022/11/12 06:16:56;;;;;;;25.40;16.90;;;;;;;6.72;95.82;100875.98;106719;1304;22140;-53
2022/11/12 06:19:41;;;;;;;26.80;16.50;;;;;;;6.76;95.98;100875.85;106703;1304;22322;-53
2022/11/12 06:22:27;;;;;;;23.90;16.80;;;;;;;6.80;95.98;100873.93;106518;1298;139203;-53
2022/11/12 06:25:12;;;;;;;23.30;16.10;;;;;;;6.83;96.07;100871.38;106617;1306;22232;-54
2022/11/12 06:27:57;;;;;;;36.20;17.10;;;;;;;6.86;96.07;100872.80;106542;1298;139193;-54
2022/11/12 06:30:43;;;;;;;24.20;16.70;;;;;;;6.87;95.89;100872.37;106716;1296;22190;-53
2022/11/12 06:33:28;;;;;;;23.60;15.40;;;;;;;6.90;95.93;100872.21;106570;1304;140216;-53
2022/11/12 06:36:15;;;;;;;26.80;17.40;;;;;;;6.93;95.92;100870.72;106742;1303;22163;-56
2022/11/12 06:39:01;;;;;;;28.10;16.90;;;;;;;6.93;95.93;100868.79;106632;1306;140033;-56
2022/11/12 06:41:46;;;;;;;27.90;15.80;;;;;;;6.98;95.93;100877.12;106702;1303;22233;-57
2022/11/12 06:44:31;;;;;;;24.70;16.20;;;;;;;7.01;96.26;100873.43;106651;1303;138202;-56
2022/11/12 06:47:17;;;;;;;23.70;14.80;;;;;;;7.08;96.46;100866.23;106789;1303;23346;-56
2022/11/12 06:50:02;;;;;;;23.30;15.90;;;;;;;7.14;96.38;100861.52;106727;1287;22335;-57
2022/11/12 06:52:47;;;;;;;24.90;15.40;;;;;;;7.18;96.54;100852.62;106764;1303;22149;-57
2022/11/12 06:55:33;;;;;;;26.50;15.80;;;;;;;7.24;96.59;100850.70;106729;1303;22199;-57
2022/11/12 06:58:19;;;;;;;27.80;15.00;;;;;;;7.30;96.62;100850.60;106669;1303;140621;-57
2022/11/12 07:01:09;;;;;;;22.30;16.20;;;;;;;7.35;96.63;100845.02;106763;1303;22080;-57
2022/11/12 07:03:56;;;;;;;23.30;15.30;;;;;;;7.42;96.82;100833.82;106603;1290;139329;-57
2022/11/12 07:06:41;;;;;;;24.30;15.50;;;;;;;7.49;96.83;100824.79;106798;1303;22218;-62
2022/11/12 07:09:26;;;;;;;22.40;15.90;;;;;;;7.54;96.80;100816.65;106572;1306;138605;-61
2022/11/12 07:12:12;;;;;;;23.10;14.90;;;;;;;7.58;96.68;100818.50;106716;1305;23291;-62
2022/11/12 07:14:57;;;;;;;26.30;16.20;;;;;;;7.61;96.54;100814.21;106618;1303;139881;-62
2022/11/12 07:17:44;;;;;;;21.90;15.70;;;;;;;7.66;96.53;100815.63;106744;1281;22844;-62
2022/11/12 07:20:29;;;;;;;26.20;16.10;;;;;;;7.66;96.37;100810.33;106597;1307;138310;-61
2022/11/12 07:23:14;;;;;;;25.20;16.00;;;;;;;7.70;96.27;100809.45;106789;1303;22889;-60
2022/11/12 07:26:23;;;;;;;25.40;16.50;;;;;;;7.72;96.28;100814.00;106720;1306;22144;-61
2022/11/12 07:29:08;;;;;;;31.00;20.10;;;;;;;7.78;96.48;100818.94;106769;1303;23166;-61
2022/11/12 07:31:53;;;;;;;38.20;25.10;;;;;;;7.84;96.41;100819.98;106714;1294;22223;-61
2022/11/12 07:34:39;;;;;;;31.90;22.60;;;;;;;7.90;96.59;100817.02;106577;1306;138694;-60
2022/11/12 07:37:24;;;;;;;31.40;20.30;;;;;;;7.98;96.53;100817.77;102664;1295;22505;-60
2022/11/12 07:40:10;;;;;;;27.90;18.20;;;;;;;8.05;96.70;100811.00;102234;1288;138870;-60
2022/11/12 07:42:57;;;;;;;29.30;17.30;;;;;;;8.11;96.64;100814.99;102485;1296;22471;-60
2022/11/12 07:45:43;;;;;;;29.60;17.50;;;;;;;8.16;96.57;100814.33;106608;1307;139143;-61
2022/11/12 07:48:29;;;;;;;27.70;17.30;;;;;;;8.21;96.41;100816.33;106772;1303;22157;-61
2022/11/12 07:51:18;;;;;;;25.00;16.40;;;;;;;8.27;96.39;100816.60;106627;1303;138271;-61
2022/11/12 07:54:04;;;;;;;27.70;16.80;;;;;;;8.32;96.29;100812.45;106726;1306;23293;-61
2022/11/12 07:56:49;;;;;;;28.20;16.20;;;;;;;8.39;96.05;100810.98;106595;1303;140145;-62
2022/11/12 07:59:34;;;;;;;28.00;16.20;;;;;;;8.45;95.77;100817.11;106779;1301;22321;-61
2022/11/12 08:02:20;;;;;;;26.70;17.90;;;;;;;8.51;95.81;100812.59;106761;1303;22161;-60
2022/11/12 08:05:09;;;;;;;29.10;16.60;;;;;;;8.59;95.78;100817.58;106738;1303;22153;-52
2022/11/12 08:08:04;;;;;;;;;;;;;;;8.67;95.43;100820.27;106742;1307;22510;-61
2022/11/12 08:10:54;;;;;;;26.50;15.80;;;;;;;8.75;95.20;100820.84;106627;1300;124549;-61
2022/11/12 08:13:39;;;;;;;25.60;17.70;;;;;;;8.81;94.83;100826.73;106744;1306;22972;-61
2022/11/12 08:16:25;;;;;;;26.00;16.30;;;;;;;8.88;94.76;100830.73;106593;1307;139208;-63
2022/11/12 08:19:10;;;;;;;52.10;31.10;;;;;;;8.95;94.52;100830.34;106744;1303;22130;-61
2022/11/12 08:21:55;;;;;;;41.00;25.60;;;;;;;9.03;94.34;100826.83;106675;1302;139405;-61
2022/11/12 08:24:41;;;;;;;26.70;16.50;;;;;;;9.11;93.91;100826.91;106770;1304;22131;-61
2022/11/12 08:27:26;;;;;;;30.00;16.40;;;;;;;9.17;93.59;100829.11;106640;1306;139342;-61
2022/11/12 08:30:12;;;;;;;29.90;17.30;;;;;;;9.22;93.05;100824.45;106746;1290;22141;-61
2022/11/12 08:33:17;;;;;;;25.60;16.00;;;;;;;9.24;92.49;100824.48;106606;1282;138890;-61
2022/11/12 08:36:06;;;;;;;25.40;16.80;;;;;;;9.26;92.07;100825.86;106720;1304;22152;-61
2022/11/12 08:38:52;;;;;;;30.40;15.90;;;;;;;9.29;91.80;100822.42;106680;1279;138770;-61
2022/11/12 08:41:37;;;;;;;31.40;16.90;;;;;;;9.34;91.88;100821.52;106719;1303;22247;-61
2022/11/12 08:44:23;;;;;;;28.90;17.80;;;;;;;9.39;91.71;100823.13;106769;1296;22853;-59
2022/11/12 08:47:08;;;;;;;30.20;17.00;;;;;;;9.45;91.75;100822.96;106715;1287;22150;-60
2022/11/12 08:49:54;;;;;;;27.40;16.50;;;;;;;9.51;91.56;100826.19;106650;1306;22237;-61
2022/11/12 08:52:39;;;;;;;31.60;17.30;;;;;;;9.57;91.06;100822.45;106631;1309;138418;-60
2022/11/12 08:55:25;;;;;;;29.00;15.90;;;;;;;9.62;90.97;100817.16;106748;1293;22129;-60
2022/11/12 08:58:10;;;;;;;25.60;16.40;;;;;;;9.66;90.73;100819.10;106628;1285;139705;-60
2022/11/12 09:00:55;;;;;;;26.60;17.40;;;;;;;9.69;90.39;100815.38;106725;1301;22117;-60
2022/11/12 09:03:41;;;;;;;117.60;63.10;;;;;;;9.72;90.15;100810.59;106662;1306;140649;-61
2022/11/12 09:06:26;;;;;;;37.90;20.50;;;;;;;9.75;90.25;100809.94;106716;1303;22132;-61
2022/11/12 09:09:12;;;;;;;32.20;16.70;;;;;;;9.78;90.09;100802.89;106631;1301;140238;-60
2022/11/12 09:11:57;;;;;;;26.50;17.10;;;;;;;9.82;90.18;100804.99;106781;1300;22176;-61
2022/11/12 09:14:43;;;;;;;37.50;22.20;;;;;;;9.86;89.83;100799.09;106691;1297;138566;-60
2022/11/12 09:17:29;;;;;;;43.00;26.20;;;;;;;9.89;89.99;100797.48;106785;1308;22207;-61
2022/11/12 09:20:15;;;;;;;33.90;19.80;;;;;;;9.93;89.92;100796.08;106761;1309;22114;-60
2022/11/12 09:23:01;;;;;;;25.90;17.30;;;;;;;9.98;89.77;100792.83;106803;1303;22153;-60
2022/11/12 09:25:47;;;;;;;28.40;16.70;;;;;;;10.01;89.76;100794.52;106746;1307;22189;-61
2022/11/12 09:28:32;;;;;;;25.40;16.60;;;;;;;10.05;89.54;100795.09;106651;1293;138485;-60
2022/11/12 09:31:18;;;;;;;24.40;16.90;;;;;;;10.08;89.55;100790.45;106659;1304;22327;-61
2022/11/12 09:34:03;;;;;;;23.90;14.90;;;;;;;10.11;89.39;100790.70;106634;1306;139355;-61
2022/11/12 09:36:49;;;;;;;25.00;15.90;;;;;;;10.13;89.12;100790.42;103807;1295;25303;-61
2022/11/12 09:39:34;;;;;;;29.10;16.60;;;;;;;10.14;89.04;100795.53;102307;1294;139598;-60
2022/11/12 09:42:20;;;;;;;23.30;16.80;;;;;;;10.15;88.82;100793.30;102354;1295;24070;-60
2022/11/12 09:45:17;;;;;;;27.80;15.10;;;;;;;10.14;88.82;100785.48;106633;1305;139034;-61
2022/11/12 09:48:05;;;;;;;25.10;15.50;;;;;;;10.20;88.59;100784.33;106619;1306;23339;-61
2022/11/12 09:50:55;;;;;;;127.40;82.00;;;;;;;10.23;88.32;100785.35;106595;1295;139140;-61
2022/11/12 09:53:56;;;;;;;65.20;38.20;;;;;;;10.24;88.52;100777.86;106605;1306;23320;-62
2022/11/12 09:56:42;;;;;;;25.90;17.30;;;;;;;10.42;88.45;100790.16;106501;1306;138904;-61
2022/11/12 09:59:30;;;;;;;30.70;16.50;;;;;;;10.51;87.66;100793.14;106758;1306;22134;-62
2022/11/12 10:02:32;;;;;;;28.70;14.40;;;;;;;10.57;87.33;100792.61;106632;1306;22209;-61
2022/11/12 10:05:24;;;;;;;26.90;15.20;;;;;;;10.66;86.94;100785.78;106698;1298;22209;-62
2022/11/12 10:08:32;;;;;;;27.60;14.60;;;;;;;10.77;86.57;100780.64;106767;1306;22107;-61
2022/11/12 10:11:24;;;;;;;21.80;15.10;;;;;;;10.87;86.11;100783.89;106697;1303;22072;-61
2022/11/12 10:14:21;;;;;;;24.60;13.70;;;;;;;10.94;85.62;100781.97;106735;1303;22177;-62
2022/11/12 10:17:49;;;;;;;23.90;14.40;;;;;;;11.00;85.10;100787.41;106524;1304;138482;-62
2022/11/12 10:20:45;;;;;;;15.90;10.80;;;;;;;11.05;84.21;100787.95;106775;1303;22147;-62
2022/11/12 10:23:41;;;;;;;18.60;11.20;;;;;;;11.08;83.32;100784.27;106629;1302;22214;-61
2022/11/12 10:26:27;;;;;;;69.30;41.60;;;;;;;11.07;82.75;100782.05;106635;1303;22974;-61
2022/11/12 10:29:18;;;;;;;30.00;16.70;;;;;;;11.06;82.57;100775.20;106633;1289;23119;-59
2022/11/12 10:32:04;;;;;;;21.90;13.80;;;;;;;11.04;82.42;100769.84;106589;1285;22233;-58
2022/11/12 10:34:49;;;;;;;28.50;11.90;;;;;;;11.01;82.16;100771.45;106587;1303;138485;-59
2022/11/12 10:37:58;;;;;;;19.10;11.40;;;;;;;10.99;82.03;100769.60;106730;1306;22204;-59
2022/11/12 10:40:43;;;;;;;19.90;12.20;;;;;;;10.97;82.18;100762.06;106505;1295;139447;-59
2022/11/12 10:43:28;;;;;;;18.50;11.20;;;;;;;10.97;82.43;100756.23;106638;1303;22263;-58
2022/11/12 10:49:00;;;;;;;17.90;12.20;;;;;;;11.06;82.22;100756.26;99743;1326;544869;-58
2022/11/12 10:51:55;;;;;;;;;;;;;;;11.04;81.77;100750.00;106033;1312;138573;-60
2022/11/12 10:54:41;;;;;;;17.00;11.60;;;;;;;11.08;80.70;100754.21;105823;1315;22227;-59
2022/11/12 10:57:26;;;;;;;20.80;11.10;;;;;;;11.07;80.54;100753.48;105711;1307;139145;-58
2022/11/12 11:00:11;;;;;;;21.70;11.50;;;;;;;11.04;80.16;100749.23;106473;1307;22840;-59
2022/11/12 11:02:57;;;;;;;18.50;11.60;;;;;;;11.01;80.26;100741.55;106393;1303;138833;-57
2022/11/12 11:05:58;;;;;;;28.80;12.90;;;;;;;10.96;80.42;100736.08;106599;1305;22235;-59
2022/11/12 11:08:48;;;;;;;18.60;11.50;;;;;;;10.94;80.34;100740.31;106677;1303;22900;-58
2022/11/12 11:11:33;;;;;;;20.80;12.20;;;;;;;10.90;80.35;100743.25;106699;1306;22108;-57
2022/11/12 11:14:22;;;;;;;23.40;12.30;;;;;;;10.88;80.53;100738.04;106648;1298;22133;-58
2022/11/12 11:17:16;;;;;;;20.50;11.70;;;;;;;10.85;80.46;100733.88;106594;1298;138916;-58
2022/11/12 11:20:12;;;;;;;16.40;11.60;;;;;;;10.84;80.48;100730.73;106577;1306;22179;-58
2022/11/12 11:23:23;;;;;;;19.80;11.60;;;;;;;10.86;80.68;100732.55;106529;1303;138908;-58
2022/11/12 11:26:50;;;;;;;22.30;11.30;;;;;;;10.91;80.87;100734.17;106645;1303;22196;-58
2022/11/12 11:29:51;;;;;;;19.30;12.90;;;;;;;10.97;80.57;100736.67;106553;1306;22810;-58
2022/11/12 11:32:51;;;;;;;21.80;13.80;;;;;;;11.04;80.66;100734.94;106526;1306;22227;-58
2022/11/12 11:35:46;;;;;;;24.90;12.40;;;;;;;11.10;80.43;100739.16;105790;1306;25241;-58
2022/11/12 11:38:40;;;;;;;23.90;12.50;;;;;;;11.15;80.34;100737.32;102385;1281;22718;-58
2022/11/12 11:42:01;;;;;;;17.90;12.50;;;;;;;11.22;80.54;100730.68;102373;1305;22484;-57
2022/11/12 11:45:12;;;;;;;27.10;13.00;;;;;;;11.32;80.35;100732.04;102465;1310;22585;-58
2022/11/12 11:48:13;;;;;;;23.90;14.10;;;;;;;11.40;80.13;100727.29;102315;1298;23246;-58
2022/11/12 11:51:05;;;;;;;24.80;13.00;;;;;;;11.47;79.82;100723.52;102272;1305;24324;-58
2022/11/12 11:54:23;;;;;;;18.10;12.00;;;;;;;11.53;79.60;100721.50;106598;1305;22874;-59
2022/11/12 11:57:18;;;;;;;21.90;12.70;;;;;;;11.58;79.17;100720.36;105743;1314;138524;-58
2022/11/12 12:00:14;;;;;;;23.00;14.20;;;;;;;11.61;79.24;100715.70;105815;1308;22176;-59
2022/11/12 12:03:13;;;;;;;28.30;18.00;;;;;;;11.64;78.87;100715.28;105629;1310;22961;-61
2022/11/12 12:06:17;;;;;;;23.20;14.30;;;;;;;11.65;78.48;100718.91;105876;1312;22987;-61
2022/11/12 12:09:38;;;;;;;22.00;12.80;;;;;;;11.67;78.29;100720.23;105862;1313;22243;-61
2022/11/12 12:12:39;;;;;;;22.60;11.80;;;;;;;11.69;78.26;100710.86;105282;1319;22413;-62
2022/11/12 12:15:45;;;;;;;22.20;14.40;;;;;;;11.68;77.84;100705.35;105061;1320;138297;-61
2022/11/12 12:18:39;;;;;;;18.90;13.10;;;;;;;11.66;77.54;100705.08;104584;1326;22370;-60
2022/11/12 12:21:25;;;;;;;16.20;11.70;;;;;;;11.62;76.91;100704.38;104421;1326;138603;-61
2022/11/12 12:24:29;;;;;;;14.90;11.10;;;;;;;11.58;76.75;100703.15;104555;1326;22354;-61
2022/11/12 12:27:23;;;;;;;18.10;11.30;;;;;;;11.53;76.77;100700.39;104462;1318;138296;-60
2022/11/12 12:30:21;;;;;;;19.40;12.80;;;;;;;11.50;76.96;100698.77;104512;1326;23178;-61
2022/11/12 12:33:15;;;;;;;25.10;14.80;;;;;;;11.46;77.04;100690.59;104885;1319;22878;-61
2022/11/12 12:36:02;;;;;;;19.70;12.20;;;;;;;11.46;77.16;100696.09;105327;1317;22177;-60
2022/11/12 12:38:51;;;;;;;21.10;14.00;;;;;;;11.48;77.07;100690.89;105212;1320;22219;-61
2022/11/12 12:41:42;;;;;;;23.20;13.50;;;;;;;11.47;77.15;100685.99;105124;1313;140209;-59
2022/11/12 12:47:38;;;;;;;16.70;10.80;;;;;;;11.57;76.63;100685.39;105100;1320;139485;-59
2022/11/12 12:50:23;;;;;;;17.30;10.30;;;;;;;11.57;76.12;100683.88;105731;1312;22384;-59
2022/11/12 12:53:11;;;;;;;17.60;10.00;;;;;;;11.55;75.78;100687.10;105816;1290;140691;-60
2022/11/12 12:55:57;;;;;;;16.80;10.10;;;;;;;11.51;75.46;100685.59;106238;1285;22266;-59
2022/11/12 12:58:44;;;;;;;15.70;10.90;;;;;;;11.47;75.49;100679.54;106384;1290;138570;-60
2022/11/12 13:01:32;;;;;;;22.20;12.60;;;;;;;11.44;75.54;100679.88;106541;1291;22171;-60
2022/11/12 13:04:17;;;;;;;20.00;11.60;;;;;;;11.41;75.54;100682.21;106424;1306;138329;-60